KCNM/CNM METAR and TAF weather

Enter ICAO airport designator
Station Type Date Time Source
KCNM METAR 2018/07/20 13:53 UTC NOAA

KCNM 201353Z AUTO 16004KT 10SM CLR 27/09 A3005 RMK AO2 SLP109 T02670089


Station Type Date Time Source
KCNM Decoded METAR 2018/07/20 13:53 UTC NOAA

CARLSBAD CAVERN CITY, NM, United States (KCNM) 32-20N 104-16W 985M
Jul 20, 2018 - 09:53 AM EDT / 2018.07.20 1353 UTC
Wind: from the SSE (160 degrees) at 5 MPH (4 KT):0
Visibility: 10 mile(s):0
Sky conditions: clear
Temperature: 80.1 F (26.7 C)
Dew Point: 48.0 F (8.9 C)
Relative Humidity: 32%
Pressure (altimeter): 30.05 in. Hg (1017 hPa)
ob: KCNM 201353Z AUTO 16004KT 10SM CLR 27/09 A3005 RMK AO2 SLP109 T02670089
cycle: 14

Station Type Date Time Source
KCNM TAF 2018/07/20 12:22 UTC NOAA

TAF KCNM 201120Z 2012/2112 16010KT P6SM SKC


Example: see airport list